Time;durP1;ratioP1;P1;durP2;ratioP2;P2;SDS_P1;SDS_P2;PMS_P1;PMS_P2;Temp;Humidity;BMP_temperature;BMP_pressure;BME280_temperature;BME280_humidity;BME280_pressure;Samples;Min_cycle;Max_cycle;Signal;HPM_P1;HPM_P2
2021/07/20 00:02:13;;;;;;;12.40;9.27;;;;;;;22.95;69.13;99546.41;4350438;32;34426;-90
2021/07/20 00:04:41;;;;;;;14.07;9.90;;;;;;;23.18;68.39;99544.19;4351315;32;33304;-90
2021/07/20 00:07:09;;;;;;;15.40;9.48;;;;;;;23.23;68.34;99536.84;4363247;32;34703;-90
2021/07/20 00:09:38;;;;;;;16.33;9.60;;;;;;;23.20;67.97;99538.81;4350914;32;34134;-91
2021/07/20 00:12:07;;;;;;;15.13;9.13;;;;;;;23.15;67.89;99544.41;4350690;32;33705;-90
2021/07/20 00:14:36;;;;;;;15.05;9.20;;;;;;;23.10;67.73;99548.22;4350887;32;32318;-91
2021/07/20 00:17:04;;;;;;;14.13;9.05;;;;;;;23.17;67.58;99546.94;4376805;32;34041;-90
2021/07/20 00:19:32;;;;;;;13.30;8.35;;;;;;;23.18;67.73;99543.34;4351134;32;35509;-91
2021/07/20 00:22:01;;;;;;;11.80;8.32;;;;;;;23.14;67.51;99547.97;4350621;32;33536;-90
2021/07/20 00:24:29;;;;;;;15.63;8.98;;;;;;;23.14;67.15;99541.81;4351135;32;34867;-90
2021/07/20 00:27:03;;;;;;;11.52;8.85;;;;;;;23.29;67.56;99551.56;4339829;32;33799;-91
2021/07/20 00:29:31;;;;;;;18.25;10.43;;;;;;;23.23;67.86;99549.25;4363323;32;34773;-90
2021/07/20 00:31:59;;;;;;;16.90;9.93;;;;;;;23.37;67.63;99552.88;4363507;32;34110;-90
2021/07/20 00:34:27;;;;;;;13.60;9.60;;;;;;;23.29;67.91;99541.81;4338823;32;33920;-90
2021/07/20 00:36:55;;;;;;;11.80;9.57;;;;;;;23.41;67.16;99541.19;4350701;32;34035;-90
2021/07/20 00:39:23;;;;;;;15.02;9.27;;;;;;;23.31;67.57;99550.56;4350637;32;35097;-90
2021/07/20 00:41:51;;;;;;;13.73;9.65;;;;;;;23.04;67.84;99536.16;4362817;32;34257;-89
2021/07/20 00:44:19;;;;;;;14.95;9.40;;;;;;;22.98;67.96;99539.16;4350493;32;33488;-90
2021/07/20 00:46:48;;;;;;;13.18;9.40;;;;;;;23.15;67.92;99547.03;4350603;32;34093;-90
2021/07/20 00:49:16;;;;;;;14.00;9.23;;;;;;;23.22;67.67;99550.22;4338549;32;34674;-91
2021/07/20 00:51:43;;;;;;;11.35;9.30;;;;;;;23.23;67.47;99542.16;4350827;32;33243;-90
2021/07/20 00:54:12;;;;;;;13.68;10.63;;;;;;;23.13;67.64;99540.94;4351840;32;33324;-90
2021/07/20 00:56:41;;;;;;;11.00;9.05;;;;;;;23.14;67.33;99537.38;4364544;32;34231;-91
2021/07/20 00:59:11;;;;;;;16.00;9.60;;;;;;;23.08;67.26;99537.72;4328025;32;34250;-90
2021/07/20 01:01:40;;;;;;;16.83;9.43;;;;;;;22.93;67.52;99543.84;4340016;32;33853;-90
2021/07/20 01:04:09;;;;;;;14.10;10.00;;;;;;;22.82;67.68;99540.94;4339877;32;34311;-90
2021/07/20 01:06:38;;;;;;;15.75;10.35;;;;;;;22.82;67.30;99531.16;4352278;32;33294;-90
2021/07/20 01:09:07;;;;;;;15.60;9.80;;;;;;;22.91;67.23;99545.72;4352684;32;35123;-90
2021/07/20 01:11:37;;;;;;;13.98;9.82;;;;;;;23.02;67.19;99543.34;4365041;32;34282;-90
2021/07/20 01:14:06;;;;;;;14.90;10.13;;;;;;;22.83;67.33;99537.31;4364308;32;33221;-90
2021/07/20 01:16:35;;;;;;;19.27;9.65;;;;;;;22.79;67.32;99538.44;4365040;32;34076;-90
2021/07/20 01:19:05;;;;;;;12.40;10.05;;;;;;;22.61;67.57;99536.75;4352344;32;34803;-90
2021/07/20 01:21:35;;;;;;;15.63;10.18;;;;;;;22.73;67.49;99536.97;4351938;32;34412;-90
2021/07/20 01:24:06;;;;;;;12.25;9.82;;;;;;;22.69;67.64;99539.88;4352494;32;33836;-90
2021/07/20 01:26:35;;;;;;;14.38;10.50;;;;;;;22.71;67.66;99537.97;4352312;32;33903;-90
2021/07/20 01:29:05;;;;;;;15.27;10.68;;;;;;;22.75;67.73;99528.91;4364472;32;35201;-90
2021/07/20 01:31:39;;;;;;;15.40;10.90;;;;;;;22.75;67.81;99529.78;4339869;32;34470;-90
2021/07/20 01:34:10;;;;;;;16.23;10.75;;;;;;;22.70;67.89;99530.97;4364774;32;33913;-90
2021/07/20 01:36:40;;;;;;;16.08;11.20;;;;;;;22.77;67.52;99524.41;4352117;32;33498;-90
2021/07/20 01:39:10;;;;;;;15.10;10.25;;;;;;;22.81;67.45;99523.31;4352187;32;33775;-90
2021/07/20 01:41:40;;;;;;;14.13;9.63;;;;;;;22.76;67.47;99528.00;4339838;32;34351;-90
2021/07/20 01:44:11;;;;;;;14.73;9.73;;;;;;;22.74;67.66;99517.47;4364409;32;33953;-90
2021/07/20 01:46:40;;;;;;;16.62;10.27;;;;;;;22.54;67.66;99519.44;4352400;32;33301;-90
2021/07/20 01:49:14;;;;;;;12.95;10.32;;;;;;;22.54;67.42;99514.13;4340054;32;35162;-90
2021/07/20 01:51:43;;;;;;;12.90;10.45;;;;;;;22.54;67.71;99516.78;4352239;32;34524;-90
2021/07/20 01:54:14;;;;;;;12.57;9.63;;;;;;;22.62;67.55;99515.50;4340610;32;32444;-90
2021/07/20 01:56:42;;;;;;;12.45;9.25;;;;;;;22.72;67.01;99519.34;4364192;32;33631;-90
2021/07/20 01:59:10;;;;;;;14.80;9.57;;;;;;;22.70;67.18;99517.72;4339731;32;33976;-90
2021/07/20 02:01:58;;;;;;;21.92;10.57;;;;;;;22.54;67.30;99515.00;4364547;32;34287;-91
2021/07/20 02:04:44;;;;;;;17.17;11.57;;;;;;;21.66;69.73;99513.37;4366095;32;34389;-90
2021/07/20 02:10:04;;;;;;;21.12;11.43;;;;;;;22.22;68.63;99508.75;4366559;32;34626;-90
2021/07/20 02:12:35;;;;;;;12.18;9.93;;;;;;;22.09;69.17;99502.38;4377718;32;34881;-90
2021/07/20 02:15:05;;;;;;;18.27;10.65;;;;;;;22.19;68.44;99503.63;4352269;32;33702;-91
2021/07/20 02:17:36;;;;;;;12.68;9.70;;;;;;;22.11;68.25;99511.09;4364478;32;34767;-91
2021/07/20 02:20:16;;;;;;;18.85;11.38;;;;;;;22.11;68.10;99510.22;4352190;32;34564;-91
2021/07/20 02:22:46;;;;;;;16.10;9.82;;;;;;;22.12;68.15;99512.81;4352764;32;34025;-91
2021/07/20 02:25:16;;;;;;;12.85;9.90;;;;;;;22.14;68.49;99510.94;4339931;32;33154;-91
2021/07/20 02:27:45;;;;;;;16.83;10.27;;;;;;;22.09;68.34;99507.66;4377781;32;34027;-91
2021/07/20 02:30:17;;;;;;;14.65;10.32;;;;;;;22.15;68.18;99509.16;4364116;32;34968;-90
2021/07/20 02:32:47;;;;;;;18.30;10.90;;;;;;;22.13;68.19;99508.38;4352305;32;34842;-90
2021/07/20 02:35:20;;;;;;;17.60;10.25;;;;;;;22.25;67.68;99507.72;4364433;32;34279;-92
2021/07/20 02:37:52;;;;;;;14.23;9.88;;;;;;;22.25;67.71;99513.00;4340057;32;33528;-90
2021/07/20 02:40:23;;;;;;;13.60;9.73;;;;;;;22.18;67.57;99515.13;4364602;32;35537;-90
2021/07/20 02:42:52;;;;;;;12.55;9.60;;;;;;;22.12;67.50;99512.81;4351563;32;34417;-91
2021/07/20 02:45:20;;;;;;;17.25;10.48;;;;;;;22.19;67.30;99502.75;4351654;32;33000;-91
2021/07/20 02:47:49;;;;;;;12.45;10.32;;;;;;;22.13;67.54;99492.50;4351885;32;35194;-90
2021/07/20 02:50:20;;;;;;;11.10;8.95;;;;;;;22.07;67.68;99503.38;4351975;32;35274;-90
2021/07/20 02:52:49;;;;;;;14.77;10.50;;;;;;;22.07;67.57;99506.88;4340003;32;33734;-90
2021/07/20 02:55:18;;;;;;;10.88;9.50;;;;;;;22.05;67.78;99507.91;4351900;32;33768;-90
2021/07/20 02:57:48;;;;;;;16.90;9.77;;;;;;;22.14;67.31;99510.06;4351830;32;34251;-90
2021/07/20 03:00:17;;;;;;;13.35;9.95;;;;;;;22.15;67.21;99502.06;4351759;32;35303;-90
2021/07/20 03:02:46;;;;;;;14.43;9.88;;;;;;;22.12;67.21;99504.87;4339811;32;34148;-90
2021/07/20 03:05:16;;;;;;;11.98;9.45;;;;;;;22.15;66.78;99502.06;4352112;32;33498;-90
2021/07/20 03:07:49;;;;;;;17.10;10.10;;;;;;;22.08;67.01;99513.87;4351823;32;34550;-90
2021/07/20 03:10:19;;;;;;;16.83;10.05;;;;;;;21.88;67.60;99511.41;4364181;32;34734;-90
2021/07/20 03:12:48;;;;;;;18.02;11.25;;;;;;;21.81;67.72;99507.31;4339812;32;34126;-90
2021/07/20 03:15:17;;;;;;;16.62;10.98;;;;;;;21.91;67.66;99511.25;4363418;32;33749;-90
2021/07/20 03:17:48;;;;;;;15.90;10.13;;;;;;;21.92;67.58;99509.44;4351423;32;33716;-90
2021/07/20 03:20:17;;;;;;;14.85;10.80;;;;;;;21.87;67.63;99514.16;4351597;32;34155;-90
2021/07/20 03:22:46;;;;;;;16.12;11.75;;;;;;;21.83;67.68;99510.75;4351516;32;33825;-90
2021/07/20 03:25:15;;;;;;;13.68;11.45;;;;;;;21.84;67.67;99507.22;4351763;32;33471;-90
2021/07/20 03:27:44;;;;;;;17.02;11.12;;;;;;;21.75;68.03;99510.25;4339576;32;34154;-90
2021/07/20 03:30:13;;;;;;;16.45;12.55;;;;;;;21.86;67.87;99513.28;4363323;32;34218;-90
2021/07/20 03:32:47;;;;;;;14.02;11.43;;;;;;;21.91;67.68;99511.25;4339275;32;33647;-90
2021/07/20 03:35:18;;;;;;;19.80;12.23;;;;;;;21.87;67.78;99517.62;4352886;32;33928;-90
2021/07/20 03:37:46;;;;;;;17.85;11.77;;;;;;;21.85;67.76;99508.91;4339387;32;33402;-90
2021/07/20 03:40:15;;;;;;;23.12;13.60;;;;;;;21.87;67.98;99517.62;4351454;32;34026;-91
2021/07/20 03:42:43;;;;;;;20.17;13.45;;;;;;;21.78;68.06;99523.34;4351316;32;33477;-90
2021/07/20 03:45:13;;;;;;;20.88;13.20;;;;;;;21.71;68.43;99523.72;4352109;32;33544;-90
2021/07/20 03:47:43;;;;;;;20.92;13.25;;;;;;;21.84;68.42;99517.81;4363769;32;34248;-90
2021/07/20 03:50:17;;;;;;;17.95;13.80;;;;;;;21.84;68.38;99516.91;4364426;32;35627;-90
2021/07/20 03:52:45;;;;;;;18.23;13.43;;;;;;;21.98;68.22;99522.41;4334686;32;33642;-90
2021/07/20 03:55:17;;;;;;;16.55;12.75;;;;;;;21.82;68.69;99514.31;4357871;32;34091;-91
2021/07/20 03:57:45;;;;;;;18.87;12.55;;;;;;;21.97;68.30;99524.19;4348022;32;34201;-91
2021/07/20 04:00:15;;;;;;;22.92;14.25;;;;;;;22.10;68.00;99525.28;4348651;32;34889;-91
2021/07/20 04:03:31;;;;;;;18.27;14.13;;;;;;;22.15;67.36;99533.84;4336465;32;34305;-91
2021/07/20 04:05:47;;;;;;;18.05;13.62;;;;;;;22.12;67.92;99534.00;4350067;32;34268;-90
2021/07/20 04:08:18;;;;;;;16.92;13.48;;;;;;;22.11;68.00;99537.56;4336967;32;34129;-91
2021/07/20 04:10:48;;;;;;;17.73;14.82;;;;;;;22.18;67.95;99532.81;4348680;32;35152;-91
2021/07/20 04:13:16;;;;;;;17.75;15.05;;;;;;;22.25;67.97;99543.00;4336961;32;34210;-90
2021/07/20 04:15:54;;;;;;;19.42;14.82;;;;;;;22.33;67.60;99539.97;4336186;32;33317;-90
2021/07/20 04:18:25;;;;;;;21.35;14.35;;;;;;;22.35;67.68;99547.84;4336821;32;33972;-91
2021/07/20 04:20:55;;;;;;;18.48;15.77;;;;;;;22.39;67.59;99542.31;4348704;32;35527;-91
2021/07/20 04:23:25;;;;;;;18.20;14.57;;;;;;;22.43;67.43;99546.50;4336969;32;34177;-91
2021/07/20 04:25:55;;;;;;;20.50;14.60;;;;;;;22.47;67.47;99544.53;4337789;32;33556;-92
2021/07/20 04:28:25;;;;;;;19.27;14.65;;;;;;;22.51;67.32;99546.13;4337958;32;34926;-92
2021/07/20 04:30:54;;;;;;;21.98;16.17;;;;;;;22.39;66.81;99541.47;4338151;32;34645;-90
2021/07/20 04:33:27;;;;;;;19.75;15.05;;;;;;;22.37;67.02;99538.03;4337709;32;33380;-92
2021/07/20 04:35:59;;;;;;;21.42;15.45;;;;;;;22.43;66.87;99540.34;4338682;32;33985;-91
2021/07/20 04:38:33;;;;;;;21.87;15.38;;;;;;;22.56;67.00;99536.13;4338570;32;34053;-91
2021/07/20 04:41:01;;;;;;;18.83;14.82;;;;;;;22.45;67.46;99546.41;4350600;32;34350;-92
2021/07/20 04:43:33;;;;;;;21.80;15.20;;;;;;;22.62;67.02;99543.78;4338686;32;34585;-92
2021/07/20 04:46:02;;;;;;;22.60;15.35;;;;;;;22.72;66.59;99548.53;4350448;32;32811;-91
2021/07/20 04:48:32;;;;;;;17.92;16.02;;;;;;;22.66;66.42;99547.97;4337994;32;35728;-92
2021/07/20 04:51:01;;;;;;;21.70;15.93;;;;;;;22.75;66.57;99556.28;4339338;32;35559;-91
2021/07/20 04:53:31;;;;;;;20.12;15.70;;;;;;;22.73;66.25;99552.00;4338071;32;33444;-91
2021/07/20 04:56:04;;;;;;;21.30;16.23;;;;;;;22.65;66.16;99556.88;4339544;32;33401;-92
2021/07/20 04:58:33;;;;;;;22.23;15.50;;;;;;;22.46;66.26;99572.00;4350201;32;35063;-92
2021/07/20 05:01:02;;;;;;;24.42;16.10;;;;;;;22.35;66.25;99571.69;4350492;32;34904;-91
2021/07/20 05:03:34;;;;;;;19.02;16.05;;;;;;;22.22;66.74;99566.19;4350415;32;34966;-91
2021/07/20 05:06:03;;;;;;;18.33;15.93;;;;;;;22.02;67.16;99572.47;4337841;32;32955;-92
2021/07/20 05:08:35;;;;;;;19.95;16.00;;;;;;;21.91;67.70;99573.94;4337627;32;33698;-91
2021/07/20 05:11:05;;;;;;;20.05;16.62;;;;;;;22.21;66.48;99573.25;4350309;32;34600;-91
2021/07/20 05:13:35;;;;;;;17.70;15.65;;;;;;;22.22;66.82;99572.34;4338353;32;34962;-91
2021/07/20 05:16:05;;;;;;;20.65;15.73;;;;;;;22.16;66.64;99577.06;4350207;32;33602;-92
2021/07/20 05:18:36;;;;;;;22.47;15.50;;;;;;;22.42;66.00;99576.59;4338036;32;34842;-91
2021/07/20 05:21:04;;;;;;;21.00;15.68;;;;;;;22.34;66.22;99580.59;4337431;32;35438;-90
2021/07/20 05:23:33;;;;;;;19.87;16.10;;;;;;;22.32;66.20;99579.81;4325226;32;33829;-91
2021/07/20 05:26:03;;;;;;;21.70;15.85;;;;;;;22.08;66.00;99580.09;4338060;32;34403;-90
2021/07/20 05:28:31;;;;;;;20.35;15.60;;;;;;;22.13;66.48;99583.38;4337294;32;33060;-90
2021/07/20 05:31:01;;;;;;;20.08;14.40;;;;;;;22.27;65.67;99590.66;4325042;32;34534;-90
2021/07/20 05:33:30;;;;;;;18.17;13.82;;;;;;;22.12;64.94;99597.56;4349868;32;33987;-89
2021/07/20 05:36:00;;;;;;;25.10;16.02;;;;;;;22.18;64.14;99599.03;4337474;32;33538;-89
2021/07/20 05:38:29;;;;;;;19.73;15.00;;;;;;;22.18;65.57;99586.66;4336593;32;33581;-87
2021/07/20 05:40:59;;;;;;;19.37;14.80;;;;;;;22.17;64.86;99594.69;4349899;32;34768;-88
2021/07/20 05:43:29;;;;;;;20.40;14.77;;;;;;;22.24;66.21;99593.44;4337390;32;33781;-88
2021/07/20 05:46:02;;;;;;;23.80;14.27;;;;;;;22.16;67.32;99599.13;4325197;32;33456;-87
2021/07/20 05:48:31;;;;;;;47.28;16.35;;;;;;;22.19;66.27;99598.97;4337911;32;33898;-87
2021/07/20 05:51:02;;;;;;;18.52;14.02;;;;;;;22.42;66.19;99602.22;4349540;32;34443;-87
2021/07/20 05:53:32;;;;;;;19.08;14.63;;;;;;;22.72;63.52;99600.69;4337945;32;33904;-87
2021/07/20 05:56:03;;;;;;;20.25;14.32;;;;;;;22.36;62.99;99610.50;4325288;32;33027;-87
2021/07/20 05:58:31;;;;;;;24.48;14.85;;;;;;;22.36;63.96;99607.84;4325571;32;33494;-87
2021/07/20 06:01:02;;;;;;;21.25;15.27;;;;;;;22.14;65.35;99616.88;4349034;32;34267;-87
2021/07/20 06:03:33;;;;;;;19.65;15.43;;;;;;;22.42;63.64;99604.87;4349745;32;34638;-87
2021/07/20 06:06:02;;;;;;;22.92;15.38;;;;;;;22.36;64.03;99607.84;4337510;32;33400;-86
2021/07/20 06:08:32;;;;;;;20.70;14.57;;;;;;;22.21;64.61;99606.81;4325008;32;32993;-87
2021/07/20 06:11:02;;;;;;;19.60;15.63;;;;;;;22.34;63.98;99607.94;4337057;32;34989;-87
2021/07/20 06:13:38;;;;;;;21.70;15.73;;;;;;;22.42;64.88;99615.47;4349408;32;33676;-87
2021/07/20 06:16:09;;;;;;;21.40;15.73;;;;;;;22.41;64.73;99616.44;4337153;32;33661;-86
2021/07/20 06:18:38;;;;;;;20.10;16.12;;;;;;;22.35;63.50;99619.37;4349602;32;34791;-87
2021/07/20 06:21:09;;;;;;;16.87;13.70;;;;;;;22.23;65.22;99619.06;4336965;32;34668;-87
2021/07/20 06:23:42;;;;;;;23.43;16.00;;;;;;;22.46;64.01;99612.63;4349173;32;34162;-87
2021/07/20 06:26:10;;;;;;;20.92;14.50;;;;;;;22.27;65.43;99616.28;4336826;32;32945;-87
2021/07/20 06:28:38;;;;;;;18.42;13.73;;;;;;;22.56;64.53;99613.00;4336984;32;34438;-87
2021/07/20 06:31:06;;;;;;;19.85;14.27;;;;;;;22.64;63.71;99614.34;4336750;32;35022;-88
2021/07/20 06:33:34;;;;;;;17.37;12.88;;;;;;;22.60;62.76;99615.41;4349186;32;34313;-88
2021/07/20 06:36:03;;;;;;;20.02;13.88;;;;;;;22.68;61.02;99629.13;4337019;32;33548;-88
2021/07/20 06:38:32;;;;;;;19.83;13.25;;;;;;;22.49;63.35;99614.25;4336896;32;34498;-89
2021/07/20 06:41:00;;;;;;;14.13;12.52;;;;;;;22.77;63.20;99606.59;4336990;32;34362;-89
2021/07/20 06:43:31;;;;;;;15.27;13.13;;;;;;;22.74;63.12;99617.34;4349475;32;34996;-89
2021/07/20 06:45:59;;;;;;;18.02;13.75;;;;;;;22.81;63.16;99618.75;4337106;32;33006;-89
2021/07/20 06:48:27;;;;;;;20.05;12.77;;;;;;;22.84;62.25;99613.28;4325146;32;33472;-90
2021/07/20 06:50:55;;;;;;;21.35;13.35;;;;;;;23.02;61.76;99616.75;4325180;32;34207;-90
2021/07/20 06:53:23;;;;;;;19.35;13.43;;;;;;;23.38;60.95;99626.25;4337460;32;33788;-93
2021/07/20 06:55:56;;;;;;;17.42;13.45;;;;;;;23.25;61.39;99621.69;4339345;32;32988;-95
2021/07/20 06:58:52;;;;;;;16.05;12.80;;;;;;;23.54;59.46;99620.94;4311695;33;33426;-96
2021/07/20 07:01:32;;;;;;;19.30;14.07;;;;;;;23.69;59.30;99613.94;4330082;33;33904;-96
2021/07/20 07:04:27;;;;;;;17.75;12.77;;;;;;;23.91;58.95;99619.75;4334771;33;34057;-96
2021/07/20 07:07:10;;;;;;;17.23;12.68;;;;;;;24.01;57.04;99616.44;4319243;33;33778;-95
2021/07/20 07:10:01;;;;;;;17.67;13.38;;;;;;;24.09;57.62;99616.91;4328452;33;33263;-94
2021/07/20 07:12:31;;;;;;;19.42;12.75;;;;;;;24.19;57.43;99615.44;4306431;33;35001;-92
2021/07/20 07:15:05;;;;;;;16.67;12.30;;;;;;;24.27;57.57;99617.63;4342527;33;34543;-92
2021/07/20 07:17:34;;;;;;;18.48;12.80;;;;;;;24.38;56.49;99624.97;4330668;33;32999;-95
2021/07/20 07:20:04;;;;;;;16.17;12.48;;;;;;;24.41;56.20;99636.28;4330028;33;33591;-91
2021/07/20 07:22:34;;;;;;;16.23;12.10;;;;;;;24.38;55.21;99632.94;4330326;33;34612;-91
2021/07/20 07:25:03;;;;;;;16.27;13.25;;;;;;;24.19;55.60;99633.16;4317335;33;34903;-92
2021/07/20 07:27:32;;;;;;;16.00;12.23;;;;;;;24.54;55.04;99642.56;4341741;33;34506;-92
2021/07/20 07:30:01;;;;;;;17.67;11.93;;;;;;;24.63;53.76;99635.84;4329210;33;33890;-90
2021/07/20 07:32:30;;;;;;;26.58;13.32;;;;;;;24.99;54.31;99628.31;4340858;33;34961;-90
2021/07/20 07:34:57;;;;;;;16.92;12.27;;;;;;;24.83;54.62;99641.72;4328578;33;34739;-90
2021/07/20 07:37:26;;;;;;;13.88;11.25;;;;;;;24.93;53.46;99622.53;4328859;33;33554;-91
2021/07/20 07:39:55;;;;;;;16.08;13.07;;;;;;;25.17;53.74;99632.53;4340913;33;34826;-90
2021/07/20 07:42:24;;;;;;;16.87;12.50;;;;;;;25.07;53.60;99627.84;4317142;33;34529;-91
2021/07/20 07:44:53;;;;;;;17.58;12.45;;;;;;;24.92;56.04;99626.13;4316613;33;34549;-91
2021/07/20 07:47:24;;;;;;;18.37;12.77;;;;;;;25.08;54.18;99626.91;4328549;33;32762;-88
2021/07/20 07:49:52;;;;;;;16.52;12.93;;;;;;;25.16;53.62;99625.47;4328594;33;34073;-88
2021/07/20 07:52:20;;;;;;;16.67;12.02;;;;;;;24.91;54.38;99641.25;4341353;33;34768;-94
2021/07/20 07:54:49;;;;;;;17.67;11.52;;;;;;;25.17;52.14;99635.19;4354393;32;33313;-93
2021/07/20 07:57:18;;;;;;;18.98;11.85;;;;;;;25.19;53.07;99632.41;4329647;33;33514;-94
2021/07/20 07:59:50;;;;;;;16.85;12.88;;;;;;;25.03;53.43;99635.16;4341173;33;34167;-90
2021/07/20 08:02:28;;;;;;;16.05;11.77;;;;;;;25.36;51.39;99635.75;4327489;33;35094;-92
2021/07/20 08:05:00;;;;;;;14.60;12.18;;;;;;;25.17;53.00;99636.97;4328523;33;33689;-92
2021/07/20 08:07:28;;;;;;;14.30;11.38;;;;;;;25.65;53.72;99639.22;4341394;33;33743;-90
2021/07/20 08:09:58;;;;;;;16.85;11.90;;;;;;;25.69;51.51;99638.09;4343668;33;34244;-91
2021/07/20 08:12:29;;;;;;;17.70;11.77;;;;;;;25.71;52.32;99632.66;4332034;33;34728;-93
2021/07/20 08:14:58;;;;;;;18.25;13.10;;;;;;;25.78;52.73;99645.47;4332688;33;34994;-93
2021/07/20 08:17:26;;;;;;;18.15;12.27;;;;;;;25.75;52.30;99643.00;4319738;33;34572;-92
2021/07/20 08:19:57;;;;;;;16.40;12.07;;;;;;;26.01;50.71;99642.16;4331976;33;33356;-92
2021/07/20 08:22:29;;;;;;;17.40;12.20;;;;;;;25.96;52.15;99649.59;4320342;33;34586;-93
2021/07/20 08:25:19;;;;;;;;;;;;;;;25.97;51.45;99642.47;4320906;33;33836;-91
2021/07/20 08:27:51;;;;;;;15.68;12.40;;;;;;;26.16;52.06;99640.34;4322093;33;33203;-93
2021/07/20 08:30:20;;;;;;;16.40;12.35;;;;;;;26.25;51.28;99645.06;4332058;33;33347;-94
2021/07/20 08:32:54;;;;;;;15.95;12.65;;;;;;;26.15;51.28;99638.62;4332461;33;33953;-91
2021/07/20 08:35:28;;;;;;;16.70;13.02;;;;;;;26.10;51.35;99641.59;4332355;33;34937;-90
2021/07/20 08:38:07;;;;;;;19.67;12.40;;;;;;;26.05;51.86;99642.84;4319820;33;34602;-93
2021/07/20 08:40:50;;;;;;;16.08;12.40;;;;;;;26.26;52.12;99638.78;4343744;33;33480;-93
2021/07/20 08:43:57;;;;;;;18.37;11.68;;;;;;;26.46;52.08;99643.59;4331222;33;33643;-90
2021/07/20 08:46:37;;;;;;;18.52;13.05;;;;;;;26.41;49.51;99640.38;4330086;33;33928;-92
2021/07/20 08:49:28;;;;;;;16.77;12.70;;;;;;;26.11;49.34;99653.97;4319210;33;32980;-93
2021/07/20 08:52:19;;;;;;;15.27;12.02;;;;;;;26.19;49.24;99653.47;4341634;33;33515;-92
2021/07/20 08:54:57;;;;;;;21.55;12.73;;;;;;;26.34;48.66;99648.94;4320446;33;33970;-93
2021/07/20 08:57:44;;;;;;;16.65;12.63;;;;;;;26.63;49.90;99645.13;4332212;33;34961;-94
2021/07/20 09:00:37;;;;;;;16.67;12.52;;;;;;;26.53;48.48;99650.22;4343389;33;33205;-94
2021/07/20 09:03:49;;;;;;;23.62;13.02;;;;;;;26.50;50.00;99652.28;4304244;33;33496;-92
2021/07/20 09:06:47;;;;;;;15.63;12.30;;;;;;;26.82;47.75;99645.59;4317178;33;34649;-94
2021/07/20 09:09:24;;;;;;;17.80;12.65;;;;;;;26.83;50.21;99642.84;4293647;33;34552;-92
2021/07/20 09:12:09;;;;;;;17.05;12.10;;;;;;;26.86;48.37;99644.47;4305319;33;33772;-91
2021/07/20 09:14:44;;;;;;;13.80;11.75;;;;;;;26.90;48.52;99647.75;4306511;33;33960;-95
2021/07/20 09:17:25;;;;;;;12.95;11.40;;;;;;;26.85;48.47;99648.06;4294876;33;34092;-91
2021/07/20 09:20:01;;;;;;;15.45;12.45;;;;;;;27.07;47.80;99642.97;4294869;33;33819;-93
2021/07/20 09:22:38;;;;;;;17.55;12.70;;;;;;;27.20;45.90;99634.91;4295070;33;33879;-90
2021/07/20 09:25:17;;;;;;;19.77;12.60;;;;;;;27.14;47.43;99630.03;4306558;33;34453;-91
2021/07/20 09:27:53;;;;;;;15.52;12.80;;;;;;;27.41;45.98;99636.94;4283128;33;34886;-91
2021/07/20 09:30:29;;;;;;;17.23;12.10;;;;;;;27.15;46.74;99639.72;4307250;33;35028;-93
2021/07/20 09:33:05;;;;;;;15.20;11.85;;;;;;;27.32;46.00;99628.72;4294833;33;32716;-92
2021/07/20 09:35:40;;;;;;;14.73;12.13;;;;;;;27.38;46.90;99633.66;4294730;33;33007;-92
2021/07/20 09:38:21;;;;;;;13.98;12.48;;;;;;;27.48;47.47;99635.53;4294194;33;33870;-92
2021/07/20 09:41:33;;;;;;;16.97;11.87;;;;;;;27.50;45.29;99636.28;4319837;33;34305;-92
2021/07/20 09:44:42;;;;;;;15.82;12.07;;;;;;;27.81;45.84;99634.09;4284433;33;33831;-93
2021/07/20 09:47:53;;;;;;;13.82;12.07;;;;;;;27.97;46.04;99634.66;4302003;33;34365;-95
2021/07/20 09:50:23;;;;;;;18.12;13.23;;;;;;;27.94;43.75;99635.72;4294513;33;33968;-91
2021/07/20 09:53:00;;;;;;;14.70;12.37;;;;;;;27.91;43.99;99638.62;4305932;33;33972;-89
2021/07/20 09:55:36;;;;;;;22.20;13.10;;;;;;;27.95;44.58;99631.25;4294421;33;33459;-92
2021/07/20 09:58:29;;;;;;;20.58;13.25;;;;;;;27.79;45.61;99626.16;4294488;33;33447;-93
2021/07/20 10:01:14;;;;;;;18.67;12.75;;;;;;;27.51;46.74;99624.66;4306312;33;35475;-92
2021/07/20 10:04:01;;;;;;;15.55;11.57;;;;;;;27.36;43.99;99630.22;4320920;33;34186;-94
2021/07/20 10:06:48;;;;;;;14.20;12.20;;;;;;;27.38;44.74;99622.97;4308446;33;34348;-91
2021/07/20 10:09:30;;;;;;;15.23;12.35;;;;;;;27.60;44.43;99620.44;4332477;33;34437;-93
2021/07/20 10:12:15;;;;;;;14.60;12.05;;;;;;;27.80;44.28;99622.53;4308310;33;34236;-92
2021/07/20 10:15:05;;;;;;;15.23;12.02;;;;;;;27.81;45.94;99612.69;4320712;33;34089;-93
2021/07/20 10:17:38;;;;;;;18.58;12.10;;;;;;;27.97;44.95;99622.16;4332846;33;32920;-93
2021/07/20 10:20:26;;;;;;;18.65;12.35;;;;;;;28.27;45.58;99620.81;4320739;33;33322;-94
2021/07/20 10:23:11;;;;;;;20.58;12.60;;;;;;;28.09;42.15;99609.72;4322509;33;35520;-95
2021/07/20 10:26:17;;;;;;;22.92;12.48;;;;;;;28.27;42.77;99623.50;4322791;33;35475;-93
2021/07/20 10:29:48;;;;;;;16.95;11.75;;;;;;;27.89;42.37;99613.81;4300543;33;33135;-93
2021/07/20 10:45:15;;;;;;;13.55;11.73;;;;;;;28.04;42.56;99602.03;4191419;34;34060;-92
2021/07/20 10:48:17;;;;;;;14.20;11.80;;;;;;;27.71;43.30;99603.66;4210205;33;34700;-94
2021/07/20 10:50:56;;;;;;;15.43;12.57;;;;;;;27.63;44.04;99601.53;4233728;33;34589;-91
2021/07/20 10:53:56;;;;;;;17.00;12.15;;;;;;;27.82;44.27;99606.38;4210383;33;33931;-93
2021/07/20 10:56:29;;;;;;;20.83;12.82;;;;;;;27.99;43.68;99603.31;4244690;33;34331;-90
2021/07/20 10:59:12;;;;;;;16.75;12.40;;;;;;;27.95;41.73;99607.19;4243430;33;33627;-91
2021/07/20 11:02:04;;;;;;;18.87;12.98;;;;;;;27.87;42.12;99604.22;4267991;33;34949;-93
2021/07/20 11:04:55;;;;;;;18.33;12.02;;;;;;;28.10;42.59;99598.03;4276939;33;33871;-94
2021/07/20 11:07:51;;;;;;;17.15;11.55;;;;;;;28.22;42.34;99588.25;4288709;33;33818;-93
2021/07/20 11:10:36;;;;;;;16.05;10.98;;;;;;;28.48;40.23;99590.63;4274053;33;34205;-93
2021/07/20 11:13:11;;;;;;;13.50;12.05;;;;;;;28.60;40.86;99597.75;4253799;33;34425;-92
2021/07/20 11:15:53;;;;;;;16.12;11.95;;;;;;;28.41;41.12;99591.25;4265288;33;33817;-90
2021/07/20 11:18:30;;;;;;;15.48;12.32;;;;;;;28.79;39.76;99583.78;4266799;33;33551;-93
2021/07/20 11:21:01;;;;;;;13.75;11.52;;;;;;;28.56;39.78;99588.22;4277729;33;33470;-93
2021/07/20 11:23:35;;;;;;;16.98;11.90;;;;;;;28.80;39.98;99580.16;4278183;33;34783;-94
2021/07/20 11:26:09;;;;;;;18.83;12.30;;;;;;;28.68;39.44;99587.31;4266173;33;35445;-96
2021/07/20 11:28:59;;;;;;;14.90;12.65;;;;;;;28.59;40.79;99582.69;4338086;32;33608;-95
2021/07/20 11:31:59;;;;;;;16.90;12.48;;;;;;;28.47;40.31;99580.91;4278650;33;33551;-94
2021/07/20 11:34:45;;;;;;;13.43;11.82;;;;;;;28.47;40.88;99583.59;4278495;33;34540;-95
2021/07/20 11:37:44;;;;;;;15.63;11.85;;;;;;;28.60;40.54;99584.38;4327070;33;34362;-93
2021/07/20 11:40:34;;;;;;;13.68;12.18;;;;;;;28.64;41.23;99572.47;4313228;33;34329;-93
2021/07/20 11:43:16;;;;;;;15.60;11.95;;;;;;;28.93;40.46;99580.03;4312520;33;33752;-94
2021/07/20 11:46:01;;;;;;;14.25;11.90;;;;;;;28.90;38.07;99580.28;4325139;33;35566;-95
2021/07/20 11:49:12;;;;;;;12.82;11.05;;;;;;;28.92;38.31;99571.16;4349285;33;34229;-95
2021/07/20 11:52:14;;;;;;;15.35;11.73;;;;;;;28.94;37.32;99573.69;4342447;33;34093;-96
2021/07/20 11:55:00;;;;;;;13.38;10.68;;;;;;;29.00;36.77;99573.22;4326326;33;33839;-95
2021/07/20 11:58:39;;;;;;;13.93;10.65;;;;;;;28.96;37.09;99577.09;4339998;33;34668;-94
2021/07/20 12:01:20;;;;;;;;;;;;;;;28.94;36.56;99579.91;4349483;33;33576;-95
2021/07/20 12:04:22;;;;;;;14.50;11.35;;;;;;;28.76;37.64;99573.34;4349018;33;33594;-94
2021/07/20 12:07:34;;;;;;;12.23;10.63;;;;;;;28.92;36.80;99565.81;4295979;33;20135;-93
2021/07/20 12:10:17;;;;;;;12.55;9.93;;;;;;;28.76;37.79;99568.81;4292830;33;34434;-92
2021/07/20 12:13:18;;;;;;;12.18;9.98;;;;;;;29.10;36.66;99579.53;4318067;33;34258;-93